sensor_id;sensor_type;location;lat;lon;timestamp;P1;durP1;ratioP1;P2;durP2;ratioP2
15679;SDS011;15488;48.114;11.532;2024-01-27T00:02:11;2.30;;;0.93;;
15679;SDS011;15488;48.114;11.532;2024-01-27T00:04:41;2.90;;;1.20;;
15679;SDS011;15488;48.114;11.532;2024-01-27T00:07:12;1.30;;;1.10;;
15679;SDS011;15488;48.114;11.532;2024-01-27T00:09:41;2.27;;;0.90;;
15679;SDS011;15488;48.114;11.532;2024-01-27T00:12:09;2.67;;;1.10;;
15679;SDS011;15488;48.114;11.532;2024-01-27T00:14:40;1.83;;;1.00;;
15679;SDS011;15488;48.114;11.532;2024-01-27T00:17:11;2.43;;;1.10;;
15679;SDS011;15488;48.114;11.532;2024-01-27T00:19:39;2.00;;;0.97;;
15679;SDS011;15488;48.114;11.532;2024-01-27T00:22:06;2.00;;;1.17;;
15679;SDS011;15488;48.114;11.532;2024-01-27T00:24:37;1.80;;;0.90;;
15679;SDS011;15488;48.114;11.532;2024-01-27T00:27:06;2.20;;;1.17;;
15679;SDS011;15488;48.114;11.532;2024-01-27T00:29:36;1.47;;;0.90;;
15679;SDS011;15488;48.114;11.532;2024-01-27T00:32:06;1.23;;;0.93;;
15679;SDS011;15488;48.114;11.532;2024-01-27T00:34:38;2.43;;;0.97;;
15679;SDS011;15488;48.114;11.532;2024-01-27T00:37:11;1.77;;;1.00;;
15679;SDS011;15488;48.114;11.532;2024-01-27T00:39:39;2.00;;;1.07;;
15679;SDS011;15488;48.114;11.532;2024-01-27T00:42:10;4.40;;;2.00;;
15679;SDS011;15488;48.114;11.532;2024-01-27T00:44:40;1.57;;;1.13;;
15679;SDS011;15488;48.114;11.532;2024-01-27T00:47:08;1.73;;;1.00;;
15679;SDS011;15488;48.114;11.532;2024-01-27T00:49:38;2.23;;;1.13;;
15679;SDS011;15488;48.114;11.532;2024-01-27T00:52:06;2.27;;;1.03;;
15679;SDS011;15488;48.114;11.532;2024-01-27T00:54:36;3.23;;;1.77;;
15679;SDS011;15488;48.114;11.532;2024-01-27T00:57:05;4.43;;;2.10;;
15679;SDS011;15488;48.114;11.532;2024-01-27T00:59:35;1.80;;;1.20;;
15679;SDS011;15488;48.114;11.532;2024-01-27T01:02:09;1.83;;;1.07;;
15679;SDS011;15488;48.114;11.532;2024-01-27T01:04:36;1.53;;;0.90;;
15679;SDS011;15488;48.114;11.532;2024-01-27T01:07:04;1.30;;;0.93;;
15679;SDS011;15488;48.114;11.532;2024-01-27T01:09:30;1.83;;;1.07;;
15679;SDS011;15488;48.114;11.532;2024-01-27T01:11:58;2.57;;;0.90;;
15679;SDS011;15488;48.114;11.532;2024-01-27T01:14:26;1.47;;;0.90;;
15679;SDS011;15488;48.114;11.532;2024-01-27T01:16:55;2.47;;;1.10;;
15679;SDS011;15488;48.114;11.532;2024-01-27T01:19:22;1.40;;;0.93;;
15679;SDS011;15488;48.114;11.532;2024-01-27T01:21:51;1.63;;;0.97;;
15679;SDS011;15488;48.114;11.532;2024-01-27T01:24:19;2.70;;;1.00;;
15679;SDS011;15488;48.114;11.532;2024-01-27T01:26:46;1.87;;;1.20;;
15679;SDS011;15488;48.114;11.532;2024-01-27T01:29:15;2.47;;;1.37;;
15679;SDS011;15488;48.114;11.532;2024-01-27T01:31:43;2.23;;;1.10;;
15679;SDS011;15488;48.114;11.532;2024-01-27T01:34:12;2.00;;;0.93;;
15679;SDS011;15488;48.114;11.532;2024-01-27T01:36:40;2.93;;;0.90;;
15679;SDS011;15488;48.114;11.532;2024-01-27T01:39:09;2.47;;;1.00;;
15679;SDS011;15488;48.114;11.532;2024-01-27T01:41:38;2.00;;;1.00;;
15679;SDS011;15488;48.114;11.532;2024-01-27T01:44:05;1.47;;;1.10;;
15679;SDS011;15488;48.114;11.532;2024-01-27T01:46:33;2.07;;;0.80;;
15679;SDS011;15488;48.114;11.532;2024-01-27T01:49:01;2.77;;;1.07;;
15679;SDS011;15488;48.114;11.532;2024-01-27T01:51:30;2.77;;;1.10;;
15679;SDS011;15488;48.114;11.532;2024-01-27T01:53:58;3.53;;;1.00;;
15679;SDS011;15488;48.114;11.532;2024-01-27T01:56:26;1.60;;;0.77;;
15679;SDS011;15488;48.114;11.532;2024-01-27T01:58:54;2.73;;;1.00;;
15679;SDS011;15488;48.114;11.532;2024-01-27T02:01:22;2.83;;;0.90;;
15679;SDS011;15488;48.114;11.532;2024-01-27T02:03:53;3.70;;;1.30;;
15679;SDS011;15488;48.114;11.532;2024-01-27T02:06:21;3.40;;;0.90;;
15679;SDS011;15488;48.114;11.532;2024-01-27T02:08:50;1.87;;;0.87;;
15679;SDS011;15488;48.114;11.532;2024-01-27T02:11:17;1.93;;;0.90;;
15679;SDS011;15488;48.114;11.532;2024-01-27T02:13:46;4.43;;;0.90;;
15679;SDS011;15488;48.114;11.532;2024-01-27T02:16:14;1.40;;;1.00;;
15679;SDS011;15488;48.114;11.532;2024-01-27T02:18:43;2.30;;;0.73;;
15679;SDS011;15488;48.114;11.532;2024-01-27T02:21:10;1.50;;;0.70;;
15679;SDS011;15488;48.114;11.532;2024-01-27T02:23:38;2.40;;;0.90;;
15679;SDS011;15488;48.114;11.532;2024-01-27T02:26:07;3.20;;;0.90;;
15679;SDS011;15488;48.114;11.532;2024-01-27T02:28:34;5.13;;;1.00;;
15679;SDS011;15488;48.114;11.532;2024-01-27T02:31:02;2.63;;;0.80;;
15679;SDS011;15488;48.114;11.532;2024-01-27T02:33:29;2.07;;;0.80;;
15679;SDS011;15488;48.114;11.532;2024-01-27T02:35:57;2.83;;;0.90;;
15679;SDS011;15488;48.114;11.532;2024-01-27T02:38:24;1.97;;;0.97;;
15679;SDS011;15488;48.114;11.532;2024-01-27T02:40:52;3.20;;;1.00;;
15679;SDS011;15488;48.114;11.532;2024-01-27T02:43:21;2.20;;;1.00;;
15679;SDS011;15488;48.114;11.532;2024-01-27T02:45:48;2.47;;;1.00;;
15679;SDS011;15488;48.114;11.532;2024-01-27T02:48:16;1.70;;;0.70;;
15679;SDS011;15488;48.114;11.532;2024-01-27T02:50:44;1.90;;;0.70;;
15679;SDS011;15488;48.114;11.532;2024-01-27T02:53:11;2.00;;;0.80;;
15679;SDS011;15488;48.114;11.532;2024-01-27T02:55:39;3.50;;;0.93;;
15679;SDS011;15488;48.114;11.532;2024-01-27T02:58:06;3.43;;;0.83;;
15679;SDS011;15488;48.114;11.532;2024-01-27T03:00:35;1.87;;;0.70;;
15679;SDS011;15488;48.114;11.532;2024-01-27T03:03:03;1.83;;;0.80;;
15679;SDS011;15488;48.114;11.532;2024-01-27T03:05:31;2.23;;;0.83;;
15679;SDS011;15488;48.114;11.532;2024-01-27T03:07:58;2.07;;;1.00;;
15679;SDS011;15488;48.114;11.532;2024-01-27T03:10:26;2.30;;;0.90;;
15679;SDS011;15488;48.114;11.532;2024-01-27T03:12:54;1.37;;;0.70;;
15679;SDS011;15488;48.114;11.532;2024-01-27T03:15:21;3.60;;;1.33;;
15679;SDS011;15488;48.114;11.532;2024-01-27T03:17:50;2.63;;;1.43;;
15679;SDS011;15488;48.114;11.532;2024-01-27T03:20:18;3.60;;;1.60;;
15679;SDS011;15488;48.114;11.532;2024-01-27T03:22:45;3.20;;;1.00;;
15679;SDS011;15488;48.114;11.532;2024-01-27T03:25:13;3.97;;;0.93;;
15679;SDS011;15488;48.114;11.532;2024-01-27T03:27:41;3.90;;;0.90;;
15679;SDS011;15488;48.114;11.532;2024-01-27T03:30:10;3.07;;;0.87;;
15679;SDS011;15488;48.114;11.532;2024-01-27T03:32:37;1.43;;;0.90;;
15679;SDS011;15488;48.114;11.532;2024-01-27T03:35:07;2.53;;;0.77;;
15679;SDS011;15488;48.114;11.532;2024-01-27T03:37:34;2.73;;;0.80;;
15679;SDS011;15488;48.114;11.532;2024-01-27T03:40:02;1.47;;;0.80;;
15679;SDS011;15488;48.114;11.532;2024-01-27T03:42:30;2.17;;;0.80;;
15679;SDS011;15488;48.114;11.532;2024-01-27T03:44:58;1.67;;;0.73;;
15679;SDS011;15488;48.114;11.532;2024-01-27T03:47:25;1.07;;;0.80;;
15679;SDS011;15488;48.114;11.532;2024-01-27T03:49:53;2.07;;;0.63;;
15679;SDS011;15488;48.114;11.532;2024-01-27T03:52:22;4.27;;;1.23;;
15679;SDS011;15488;48.114;11.532;2024-01-27T03:54:49;2.37;;;0.80;;
15679;SDS011;15488;48.114;11.532;2024-01-27T03:57:17;1.43;;;0.70;;
15679;SDS011;15488;48.114;11.532;2024-01-27T03:59:44;3.10;;;0.80;;
15679;SDS011;15488;48.114;11.532;2024-01-27T04:02:12;3.93;;;1.03;;
15679;SDS011;15488;48.114;11.532;2024-01-27T04:04:39;3.03;;;0.87;;
15679;SDS011;15488;48.114;11.532;2024-01-27T04:07:07;2.70;;;0.70;;
15679;SDS011;15488;48.114;11.532;2024-01-27T04:09:36;3.13;;;1.00;;
15679;SDS011;15488;48.114;11.532;2024-01-27T04:12:04;1.83;;;0.80;;
15679;SDS011;15488;48.114;11.532;2024-01-27T04:14:32;2.30;;;1.00;;
15679;SDS011;15488;48.114;11.532;2024-01-27T04:16:59;1.63;;;0.80;;
15679;SDS011;15488;48.114;11.532;2024-01-27T04:19:27;1.93;;;0.80;;
15679;SDS011;15488;48.114;11.532;2024-01-27T04:21:54;2.47;;;0.90;;
15679;SDS011;15488;48.114;11.532;2024-01-27T04:24:22;2.13;;;0.90;;
15679;SDS011;15488;48.114;11.532;2024-01-27T04:26:51;2.47;;;0.77;;
15679;SDS011;15488;48.114;11.532;2024-01-27T04:29:18;2.67;;;0.80;;
15679;SDS011;15488;48.114;11.532;2024-01-27T04:31:46;4.07;;;1.03;;
15679;SDS011;15488;48.114;11.532;2024-01-27T04:34:14;1.80;;;0.80;;
15679;SDS011;15488;48.114;11.532;2024-01-27T04:36:41;0.87;;;0.67;;
15679;SDS011;15488;48.114;11.532;2024-01-27T04:39:09;3.10;;;0.80;;
15679;SDS011;15488;48.114;11.532;2024-01-27T04:41:40;1.77;;;0.73;;
15679;SDS011;15488;48.114;11.532;2024-01-27T04:44:10;2.53;;;0.90;;
15679;SDS011;15488;48.114;11.532;2024-01-27T04:46:38;2.80;;;0.90;;
15679;SDS011;15488;48.114;11.532;2024-01-27T04:49:05;2.07;;;0.80;;
15679;SDS011;15488;48.114;11.532;2024-01-27T04:51:33;2.93;;;0.93;;
15679;SDS011;15488;48.114;11.532;2024-01-27T04:54:00;1.67;;;0.60;;
15679;SDS011;15488;48.114;11.532;2024-01-27T04:56:28;3.10;;;0.90;;
15679;SDS011;15488;48.114;11.532;2024-01-27T04:58:56;3.23;;;0.70;;
15679;SDS011;15488;48.114;11.532;2024-01-27T05:01:24;2.33;;;0.97;;
15679;SDS011;15488;48.114;11.532;2024-01-27T05:03:52;1.87;;;0.87;;
15679;SDS011;15488;48.114;11.532;2024-01-27T05:06:20;2.30;;;0.73;;
15679;SDS011;15488;48.114;11.532;2024-01-27T05:08:47;1.47;;;0.97;;
15679;SDS011;15488;48.114;11.532;2024-01-27T05:11:15;2.50;;;0.80;;
15679;SDS011;15488;48.114;11.532;2024-01-27T05:13:51;2.30;;;0.90;;
15679;SDS011;15488;48.114;11.532;2024-01-27T05:16:18;1.33;;;0.67;;
15679;SDS011;15488;48.114;11.532;2024-01-27T05:18:47;3.47;;;1.10;;
15679;SDS011;15488;48.114;11.532;2024-01-27T05:21:15;3.60;;;0.93;;
15679;SDS011;15488;48.114;11.532;2024-01-27T05:23:42;1.67;;;0.80;;
15679;SDS011;15488;48.114;11.532;2024-01-27T05:26:10;2.30;;;0.80;;
15679;SDS011;15488;48.114;11.532;2024-01-27T05:28:38;3.13;;;1.10;;
15679;SDS011;15488;48.114;11.532;2024-01-27T05:31:06;1.40;;;1.00;;
15679;SDS011;15488;48.114;11.532;2024-01-27T05:33:34;1.67;;;0.80;;
15679;SDS011;15488;48.114;11.532;2024-01-27T05:36:03;1.10;;;0.70;;
15679;SDS011;15488;48.114;11.532;2024-01-27T05:38:31;1.57;;;0.97;;
15679;SDS011;15488;48.114;11.532;2024-01-27T05:41:00;1.83;;;0.90;;
15679;SDS011;15488;48.114;11.532;2024-01-27T05:43:27;3.50;;;1.07;;
15679;SDS011;15488;48.114;11.532;2024-01-27T05:45:55;2.07;;;0.93;;
15679;SDS011;15488;48.114;11.532;2024-01-27T05:48:23;3.53;;;1.40;;
15679;SDS011;15488;48.114;11.532;2024-01-27T05:50:56;2.60;;;1.00;;
15679;SDS011;15488;48.114;11.532;2024-01-27T05:53:26;1.73;;;0.87;;
15679;SDS011;15488;48.114;11.532;2024-01-27T05:55:54;2.23;;;1.00;;
15679;SDS011;15488;48.114;11.532;2024-01-27T05:58:22;1.97;;;0.70;;
15679;SDS011;15488;48.114;11.532;2024-01-27T06:00:50;2.53;;;1.17;;
15679;SDS011;15488;48.114;11.532;2024-01-27T06:03:18;5.03;;;1.20;;
15679;SDS011;15488;48.114;11.532;2024-01-27T06:05:45;3.90;;;1.10;;
15679;SDS011;15488;48.114;11.532;2024-01-27T06:08:13;2.10;;;1.07;;
15679;SDS011;15488;48.114;11.532;2024-01-27T06:10:42;3.17;;;0.90;;
15679;SDS011;15488;48.114;11.532;2024-01-27T06:13:09;1.70;;;0.90;;
15679;SDS011;15488;48.114;11.532;2024-01-27T06:15:37;3.23;;;1.00;;
15679;SDS011;15488;48.114;11.532;2024-01-27T06:18:04;3.70;;;1.00;;
15679;SDS011;15488;48.114;11.532;2024-01-27T06:20:32;3.67;;;1.60;;
15679;SDS011;15488;48.114;11.532;2024-01-27T06:22:59;3.70;;;1.20;;
15679;SDS011;15488;48.114;11.532;2024-01-27T06:25:27;1.90;;;0.90;;
15679;SDS011;15488;48.114;11.532;2024-01-27T06:27:56;2.63;;;1.13;;
15679;SDS011;15488;48.114;11.532;2024-01-27T06:30:23;2.77;;;1.10;;
15679;SDS011;15488;48.114;11.532;2024-01-27T06:32:51;5.00;;;1.43;;
15679;SDS011;15488;48.114;11.532;2024-01-27T06:35:18;2.87;;;0.90;;
15679;SDS011;15488;48.114;11.532;2024-01-27T06:37:46;1.47;;;1.03;;
15679;SDS011;15488;48.114;11.532;2024-01-27T06:40:15;2.20;;;1.00;;
15679;SDS011;15488;48.114;11.532;2024-01-27T06:42:43;3.43;;;1.13;;
15679;SDS011;15488;48.114;11.532;2024-01-27T06:45:12;2.87;;;1.10;;
15679;SDS011;15488;48.114;11.532;2024-01-27T06:47:40;3.73;;;1.00;;
15679;SDS011;15488;48.114;11.532;2024-01-27T06:50:08;2.07;;;1.00;;
15679;SDS011;15488;48.114;11.532;2024-01-27T06:52:35;2.40;;;1.20;;
15679;SDS011;15488;48.114;11.532;2024-01-27T06:55:03;2.90;;;1.10;;
15679;SDS011;15488;48.114;11.532;2024-01-27T06:57:32;3.27;;;1.20;;
15679;SDS011;15488;48.114;11.532;2024-01-27T06:59:59;3.10;;;1.20;;
15679;SDS011;15488;48.114;11.532;2024-01-27T07:02:29;1.97;;;1.03;;
15679;SDS011;15488;48.114;11.532;2024-01-27T07:04:57;2.60;;;1.10;;
15679;SDS011;15488;48.114;11.532;2024-01-27T07:07:25;2.27;;;1.20;;
15679;SDS011;15488;48.114;11.532;2024-01-27T07:09:54;2.37;;;1.37;;
15679;SDS011;15488;48.114;11.532;2024-01-27T07:12:22;4.40;;;1.10;;
15679;SDS011;15488;48.114;11.532;2024-01-27T07:14:49;3.30;;;1.40;;
15679;SDS011;15488;48.114;11.532;2024-01-27T07:17:18;2.17;;;1.20;;
15679;SDS011;15488;48.114;11.532;2024-01-27T07:19:47;5.27;;;1.50;;
15679;SDS011;15488;48.114;11.532;2024-01-27T07:22:14;2.80;;;1.27;;
15679;SDS011;15488;48.114;11.532;2024-01-27T07:24:42;5.63;;;1.47;;
15679;SDS011;15488;48.114;11.532;2024-01-27T07:27:11;3.97;;;1.47;;
15679;SDS011;15488;48.114;11.532;2024-01-27T07:29:39;2.33;;;1.20;;
15679;SDS011;15488;48.114;11.532;2024-01-27T07:32:06;9.73;;;4.67;;
15679;SDS011;15488;48.114;11.532;2024-01-27T07:34:38;9.77;;;4.93;;
15679;SDS011;15488;48.114;11.532;2024-01-27T07:37:08;7.03;;;2.90;;
15679;SDS011;15488;48.114;11.532;2024-01-27T07:39:35;5.83;;;1.83;;
15679;SDS011;15488;48.114;11.532;2024-01-27T07:42:03;3.40;;;1.47;;
15679;SDS011;15488;48.114;11.532;2024-01-27T07:44:31;4.63;;;1.50;;
15679;SDS011;15488;48.114;11.532;2024-01-27T07:46:58;3.10;;;1.63;;
15679;SDS011;15488;48.114;11.532;2024-01-27T07:49:26;2.70;;;1.47;;
15679;SDS011;15488;48.114;11.532;2024-01-27T07:51:54;4.37;;;1.60;;
15679;SDS011;15488;48.114;11.532;2024-01-27T07:54:23;3.97;;;1.80;;
15679;SDS011;15488;48.114;11.532;2024-01-27T07:56:50;5.17;;;1.90;;
15679;SDS011;15488;48.114;11.532;2024-01-27T07:59:18;6.27;;;2.00;;
15679;SDS011;15488;48.114;11.532;2024-01-27T08:01:45;7.67;;;2.00;;
15679;SDS011;15488;48.114;11.532;2024-01-27T08:04:13;6.07;;;2.00;;
15679;SDS011;15488;48.114;11.532;2024-01-27T08:06:47;4.80;;;2.13;;
15679;SDS011;15488;48.114;11.532;2024-01-27T08:09:16;2.80;;;1.60;;
15679;SDS011;15488;48.114;11.532;2024-01-27T08:11:46;2.93;;;1.90;;
15679;SDS011;15488;48.114;11.532;2024-01-27T08:14:17;6.17;;;1.90;;
15679;SDS011;15488;48.114;11.532;2024-01-27T08:16:45;5.67;;;2.20;;
15679;SDS011;15488;48.114;11.532;2024-01-27T08:19:13;5.93;;;1.93;;
15679;SDS011;15488;48.114;11.532;2024-01-27T08:21:45;6.33;;;2.10;;
15679;SDS011;15488;48.114;11.532;2024-01-27T08:24:13;5.70;;;2.30;;
15679;SDS011;15488;48.114;11.532;2024-01-27T08:26:40;5.87;;;2.30;;
15679;SDS011;15488;48.114;11.532;2024-01-27T08:29:10;4.50;;;2.10;;
15679;SDS011;15488;48.114;11.532;2024-01-27T08:31:38;7.10;;;2.30;;
15679;SDS011;15488;48.114;11.532;2024-01-27T08:34:05;4.63;;;2.20;;
15679;SDS011;15488;48.114;11.532;2024-01-27T08:36:33;6.27;;;2.13;;
15679;SDS011;15488;48.114;11.532;2024-01-27T08:39:02;5.50;;;2.10;;
15679;SDS011;15488;48.114;11.532;2024-01-27T08:41:32;6.87;;;2.23;;
15679;SDS011;15488;48.114;11.532;2024-01-27T08:44:00;6.07;;;2.03;;
15679;SDS011;15488;48.114;11.532;2024-01-27T08:46:29;7.37;;;2.50;;
15679;SDS011;15488;48.114;11.532;2024-01-27T08:48:56;4.70;;;1.97;;
15679;SDS011;15488;48.114;11.532;2024-01-27T08:51:24;5.93;;;2.00;;
15679;SDS011;15488;48.114;11.532;2024-01-27T08:53:51;4.80;;;2.10;;
15679;SDS011;15488;48.114;11.532;2024-01-27T08:56:19;3.73;;;2.03;;
15679;SDS011;15488;48.114;11.532;2024-01-27T08:58:46;5.73;;;1.93;;
15679;SDS011;15488;48.114;11.532;2024-01-27T09:01:15;5.10;;;1.80;;
15679;SDS011;15488;48.114;11.532;2024-01-27T09:03:44;3.20;;;1.80;;
15679;SDS011;15488;48.114;11.532;2024-01-27T09:06:12;3.80;;;1.90;;
15679;SDS011;15488;48.114;11.532;2024-01-27T09:08:40;6.77;;;2.03;;
15679;SDS011;15488;48.114;11.532;2024-01-27T09:11:07;5.07;;;2.10;;
15679;SDS011;15488;48.114;11.532;2024-01-27T09:13:35;5.63;;;2.50;;
15679;SDS011;15488;48.114;11.532;2024-01-27T09:16:03;3.23;;;1.87;;
15679;SDS011;15488;48.114;11.532;2024-01-27T09:18:31;4.60;;;1.83;;
15679;SDS011;15488;48.114;11.532;2024-01-27T09:21:00;6.83;;;2.10;;
15679;SDS011;15488;48.114;11.532;2024-01-27T09:23:27;4.60;;;2.03;;
15679;SDS011;15488;48.114;11.532;2024-01-27T09:25:55;6.13;;;2.00;;
15679;SDS011;15488;48.114;11.532;2024-01-27T09:28:23;5.57;;;1.80;;
15679;SDS011;15488;48.114;11.532;2024-01-27T09:30:51;5.00;;;1.73;;
15679;SDS011;15488;48.114;11.532;2024-01-27T09:33:18;6.03;;;1.80;;
15679;SDS011;15488;48.114;11.532;2024-01-27T09:35:48;5.60;;;1.60;;
15679;SDS011;15488;48.114;11.532;2024-01-27T09:38:17;5.47;;;2.03;;
15679;SDS011;15488;48.114;11.532;2024-01-27T09:40:45;5.60;;;2.00;;
15679;SDS011;15488;48.114;11.532;2024-01-27T09:43:13;6.77;;;3.00;;
15679;SDS011;15488;48.114;11.532;2024-01-27T09:45:42;9.53;;;4.20;;
15679;SDS011;15488;48.114;11.532;2024-01-27T09:48:10;4.37;;;2.70;;
15679;SDS011;15488;48.114;11.532;2024-01-27T09:50:39;7.27;;;2.80;;
15679;SDS011;15488;48.114;11.532;2024-01-27T09:53:08;4.20;;;2.43;;
15679;SDS011;15488;48.114;11.532;2024-01-27T09:55:37;6.47;;;3.00;;
15679;SDS011;15488;48.114;11.532;2024-01-27T09:58:04;5.40;;;2.90;;
15679;SDS011;15488;48.114;11.532;2024-01-27T10:00:33;5.03;;;2.20;;
15679;SDS011;15488;48.114;11.532;2024-01-27T10:03:03;6.93;;;2.23;;
15679;SDS011;15488;48.114;11.532;2024-01-27T10:05:31;4.57;;;1.93;;
15679;SDS011;15488;48.114;11.532;2024-01-27T10:08:00;5.97;;;2.10;;
15679;SDS011;15488;48.114;11.532;2024-01-27T10:10:27;4.10;;;1.97;;
15679;SDS011;15488;48.114;11.532;2024-01-27T10:12:56;7.00;;;2.20;;
15679;SDS011;15488;48.114;11.532;2024-01-27T10:15:28;5.90;;;2.10;;
15679;SDS011;15488;48.114;11.532;2024-01-27T10:18:04;3.60;;;1.70;;
15679;SDS011;15488;48.114;11.532;2024-01-27T10:20:32;4.00;;;1.97;;
15679;SDS011;15488;48.114;11.532;2024-01-27T10:23:10;3.23;;;1.90;;
15679;SDS011;15488;48.114;11.532;2024-01-27T10:25:38;5.87;;;2.00;;
15679;SDS011;15488;48.114;11.532;2024-01-27T10:28:07;4.27;;;2.10;;
15679;SDS011;15488;48.114;11.532;2024-01-27T10:30:35;5.50;;;2.00;;
15679;SDS011;15488;48.114;11.532;2024-01-27T10:33:09;3.80;;;2.10;;
15679;SDS011;15488;48.114;11.532;2024-01-27T10:35:40;4.83;;;2.00;;
15679;SDS011;15488;48.114;11.532;2024-01-27T10:38:10;4.77;;;2.13;;
15679;SDS011;15488;48.114;11.532;2024-01-27T10:40:38;4.87;;;1.90;;
15679;SDS011;15488;48.114;11.532;2024-01-27T10:43:08;7.63;;;2.70;;
15679;SDS011;15488;48.114;11.532;2024-01-27T10:45:36;5.57;;;2.27;;
15679;SDS011;15488;48.114;11.532;2024-01-27T10:48:05;6.03;;;2.37;;
15679;SDS011;15488;48.114;11.532;2024-01-27T10:50:36;3.77;;;2.20;;
15679;SDS011;15488;48.114;11.532;2024-01-27T10:53:05;6.30;;;2.87;;
15679;SDS011;15488;48.114;11.532;2024-01-27T10:55:43;4.87;;;3.07;;
15679;SDS011;15488;48.114;11.532;2024-01-27T10:58:16;10.10;;;4.63;;
15679;SDS011;15488;48.114;11.532;2024-01-27T11:00:45;6.93;;;2.43;;
15679;SDS011;15488;48.114;11.532;2024-01-27T11:03:17;5.80;;;1.97;;
15679;SDS011;15488;48.114;11.532;2024-01-27T11:05:47;4.13;;;1.90;;
15679;SDS011;15488;48.114;11.532;2024-01-27T11:08:15;6.37;;;2.00;;
15679;SDS011;15488;48.114;11.532;2024-01-27T11:10:46;5.77;;;2.20;;
15679;SDS011;15488;48.114;11.532;2024-01-27T11:13:18;4.63;;;2.10;;
15679;SDS011;15488;48.114;11.532;2024-01-27T11:15:50;3.47;;;1.80;;
15679;SDS011;15488;48.114;11.532;2024-01-27T11:18:20;4.73;;;1.80;;
15679;SDS011;15488;48.114;11.532;2024-01-27T11:20:52;2.70;;;1.60;;
15679;SDS011;15488;48.114;11.532;2024-01-27T11:23:31;3.00;;;1.77;;
15679;SDS011;15488;48.114;11.532;2024-01-27T11:26:05;7.87;;;1.83;;
15679;SDS011;15488;48.114;11.532;2024-01-27T11:28:35;3.23;;;1.73;;
15679;SDS011;15488;48.114;11.532;2024-01-27T11:31:06;4.37;;;1.70;;
15679;SDS011;15488;48.114;11.532;2024-01-27T11:33:42;3.80;;;2.33;;
15679;SDS011;15488;48.114;11.532;2024-01-27T11:36:17;3.47;;;1.87;;
15679;SDS011;15488;48.114;11.532;2024-01-27T11:38:48;4.33;;;1.63;;
15679;SDS011;15488;48.114;11.532;2024-01-27T11:41:26;3.43;;;1.77;;
15679;SDS011;15488;48.114;11.532;2024-01-27T11:43:56;2.70;;;1.73;;
15679;SDS011;15488;48.114;11.532;2024-01-27T11:46:26;3.97;;;1.80;;
15679;SDS011;15488;48.114;11.532;2024-01-27T11:48:56;5.60;;;1.80;;
15679;SDS011;15488;48.114;11.532;2024-01-27T11:51:26;5.13;;;2.00;;
15679;SDS011;15488;48.114;11.532;2024-01-27T11:53:57;2.67;;;1.67;;
15679;SDS011;15488;48.114;11.532;2024-01-27T11:56:25;3.70;;;1.67;;
15679;SDS011;15488;48.114;11.532;2024-01-27T11:58:53;4.10;;;1.70;;
15679;SDS011;15488;48.114;11.532;2024-01-27T12:01:22;3.87;;;1.80;;
15679;SDS011;15488;48.114;11.532;2024-01-27T12:03:50;4.90;;;1.53;;
15679;SDS011;15488;48.114;11.532;2024-01-27T12:06:18;5.60;;;1.60;;
15679;SDS011;15488;48.114;11.532;2024-01-27T12:08:46;2.83;;;1.43;;
15679;SDS011;15488;48.114;11.532;2024-01-27T12:11:14;1.93;;;1.30;;
15679;SDS011;15488;48.114;11.532;2024-01-27T12:13:41;2.93;;;1.30;;
15679;SDS011;15488;48.114;11.532;2024-01-27T12:16:10;4.47;;;1.80;;
15679;SDS011;15488;48.114;11.532;2024-01-27T12:18:38;3.83;;;1.63;;
15679;SDS011;15488;48.114;11.532;2024-01-27T12:21:05;5.07;;;2.07;;
15679;SDS011;15488;48.114;11.532;2024-01-27T12:23:33;4.80;;;2.30;;
15679;SDS011;15488;48.114;11.532;2024-01-27T12:26:00;4.40;;;1.90;;
15679;SDS011;15488;48.114;11.532;2024-01-27T12:28:29;4.63;;;1.70;;
15679;SDS011;15488;48.114;11.532;2024-01-27T12:30:56;4.10;;;1.77;;
15679;SDS011;15488;48.114;11.532;2024-01-27T12:33:26;4.87;;;1.90;;
15679;SDS011;15488;48.114;11.532;2024-01-27T12:35:54;4.47;;;2.00;;
15679;SDS011;15488;48.114;11.532;2024-01-27T12:38:22;4.97;;;1.97;;
15679;SDS011;15488;48.114;11.532;2024-01-27T12:40:49;3.67;;;1.90;;
15679;SDS011;15488;48.114;11.532;2024-01-27T12:43:17;3.43;;;1.73;;
15679;SDS011;15488;48.114;11.532;2024-01-27T12:45:45;2.67;;;1.60;;
15679;SDS011;15488;48.114;11.532;2024-01-27T12:48:12;2.23;;;1.47;;
15679;SDS011;15488;48.114;11.532;2024-01-27T12:50:41;4.73;;;1.77;;
15679;SDS011;15488;48.114;11.532;2024-01-27T12:53:09;2.27;;;1.67;;
15679;SDS011;15488;48.114;11.532;2024-01-27T12:55:36;2.70;;;1.40;;
15679;SDS011;15488;48.114;11.532;2024-01-27T12:58:04;1.70;;;1.10;;
15679;SDS011;15488;48.114;11.532;2024-01-27T13:00:32;1.77;;;1.17;;
15679;SDS011;15488;48.114;11.532;2024-01-27T13:03:00;2.13;;;1.20;;
15679;SDS011;15488;48.114;11.532;2024-01-27T13:05:28;5.40;;;2.20;;
15679;SDS011;15488;48.114;11.532;2024-01-27T13:07:58;17.80;;;8.03;;
15679;SDS011;15488;48.114;11.532;2024-01-27T13:10:26;30.23;;;13.67;;
15679;SDS011;15488;48.114;11.532;2024-01-27T13:12:54;9.97;;;4.17;;
15679;SDS011;15488;48.114;11.532;2024-01-27T13:15:23;3.23;;;1.60;;
15679;SDS011;15488;48.114;11.532;2024-01-27T13:17:51;3.27;;;1.20;;
15679;SDS011;15488;48.114;11.532;2024-01-27T13:20:18;3.93;;;1.50;;
15679;SDS011;15488;48.114;11.532;2024-01-27T13:22:46;2.80;;;1.20;;
15679;SDS011;15488;48.114;11.532;2024-01-27T13:25:15;2.97;;;1.43;;
15679;SDS011;15488;48.114;11.532;2024-01-27T13:27:42;3.77;;;1.37;;
15679;SDS011;15488;48.114;11.532;2024-01-27T13:30:11;3.40;;;1.33;;
15679;SDS011;15488;48.114;11.532;2024-01-27T13:32:38;3.70;;;1.43;;
15679;SDS011;15488;48.114;11.532;2024-01-27T13:35:06;2.80;;;1.23;;
15679;SDS011;15488;48.114;11.532;2024-01-27T13:37:36;4.43;;;1.30;;
15679;SDS011;15488;48.114;11.532;2024-01-27T13:40:06;3.37;;;1.40;;
15679;SDS011;15488;48.114;11.532;2024-01-27T13:42:36;4.00;;;1.50;;
15679;SDS011;15488;48.114;11.532;2024-01-27T13:45:04;3.60;;;1.47;;
15679;SDS011;15488;48.114;11.532;2024-01-27T13:47:33;2.93;;;1.60;;
15679;SDS011;15488;48.114;11.532;2024-01-27T13:50:01;4.17;;;1.30;;
15679;SDS011;15488;48.114;11.532;2024-01-27T13:52:32;3.30;;;1.47;;
15679;SDS011;15488;48.114;11.532;2024-01-27T13:55:02;4.20;;;1.47;;
15679;SDS011;15488;48.114;11.532;2024-01-27T13:57:31;4.00;;;1.40;;
15679;SDS011;15488;48.114;11.532;2024-01-27T14:00:03;3.53;;;1.93;;
15679;SDS011;15488;48.114;11.532;2024-01-27T14:02:36;2.70;;;1.17;;
15679;SDS011;15488;48.114;11.532;2024-01-27T14:05:12;3.50;;;1.77;;
15679;SDS011;15488;48.114;11.532;2024-01-27T14:07:40;3.27;;;1.50;;
15679;SDS011;15488;48.114;11.532;2024-01-27T14:10:10;21.47;;;10.73;;
15679;SDS011;15488;48.114;11.532;2024-01-27T14:12:39;21.73;;;11.70;;
15679;SDS011;15488;48.114;11.532;2024-01-27T14:15:12;27.10;;;14.17;;
15679;SDS011;15488;48.114;11.532;2024-01-27T14:17:42;18.27;;;9.87;;
15679;SDS011;15488;48.114;11.532;2024-01-27T14:20:11;3.73;;;1.97;;
15679;SDS011;15488;48.114;11.532;2024-01-27T14:22:41;3.30;;;1.30;;
15679;SDS011;15488;48.114;11.532;2024-01-27T14:25:11;2.40;;;1.37;;
15679;SDS011;15488;48.114;11.532;2024-01-27T14:27:39;3.50;;;1.40;;
15679;SDS011;15488;48.114;11.532;2024-01-27T14:30:07;2.73;;;1.20;;
15679;SDS011;15488;48.114;11.532;2024-01-27T14:32:38;2.83;;;1.40;;
15679;SDS011;15488;48.114;11.532;2024-01-27T14:35:09;2.00;;;1.13;;
15679;SDS011;15488;48.114;11.532;2024-01-27T14:37:42;2.90;;;1.30;;
15679;SDS011;15488;48.114;11.532;2024-01-27T14:40:13;4.70;;;2.97;;
15679;SDS011;15488;48.114;11.532;2024-01-27T14:42:44;7.13;;;4.33;;